sensor_id;sensor_type;location;lat;lon;timestamp;temperature;humidity
28773;DHT22;15925;51.222;5.678;2023-03-01T00:01:13;0.50;99.90
28773;DHT22;15925;51.222;5.678;2023-03-01T00:03:41;0.60;99.90
28773;DHT22;15925;51.222;5.678;2023-03-01T00:06:06;0.60;99.90
28773;DHT22;15925;51.222;5.678;2023-03-01T00:08:33;0.50;99.90
28773;DHT22;15925;51.222;5.678;2023-03-01T00:11:28;0.60;99.90
28773;DHT22;15925;51.222;5.678;2023-03-01T00:13:57;0.40;99.90
28773;DHT22;15925;51.222;5.678;2023-03-01T00:16:31;0.40;99.90
28773;DHT22;15925;51.222;5.678;2023-03-01T00:18:57;0.40;99.90
28773;DHT22;15925;51.222;5.678;2023-03-01T00:21:23;0.40;99.90
28773;DHT22;15925;51.222;5.678;2023-03-01T00:23:50;0.40;99.90
28773;DHT22;15925;51.222;5.678;2023-03-01T00:26:17;0.40;99.90
28773;DHT22;15925;51.222;5.678;2023-03-01T00:28:44;0.40;99.90
28773;DHT22;15925;51.222;5.678;2023-03-01T00:31:14;0.40;99.90
28773;DHT22;15925;51.222;5.678;2023-03-01T00:33:41;0.30;99.90
28773;DHT22;15925;51.222;5.678;2023-03-01T00:36:07;0.30;99.90
28773;DHT22;15925;51.222;5.678;2023-03-01T00:38:41;0.40;99.90
28773;DHT22;15925;51.222;5.678;2023-03-01T00:41:12;0.30;99.90
28773;DHT22;15925;51.222;5.678;2023-03-01T00:43:38;0.30;99.90
28773;DHT22;15925;51.222;5.678;2023-03-01T00:46:06;0.30;99.90
28773;DHT22;15925;51.222;5.678;2023-03-01T00:48:32;0.30;99.90
28773;DHT22;15925;51.222;5.678;2023-03-01T00:51:11;0.30;99.90
28773;DHT22;15925;51.222;5.678;2023-03-01T00:53:38;0.30;99.90
28773;DHT22;15925;51.222;5.678;2023-03-01T00:56:05;0.40;99.90
28773;DHT22;15925;51.222;5.678;2023-03-01T00:58:31;0.40;99.90
28773;DHT22;15925;51.222;5.678;2023-03-01T01:00:57;0.40;99.90
28773;DHT22;15925;51.222;5.678;2023-03-01T01:03:24;0.30;99.90
28773;DHT22;15925;51.222;5.678;2023-03-01T01:05:53;0.20;99.90
28773;DHT22;15925;51.222;5.678;2023-03-01T01:08:19;0.20;99.90
28773;DHT22;15925;51.222;5.678;2023-03-01T01:10:46;0.20;99.90
28773;DHT22;15925;51.222;5.678;2023-03-01T01:13:12;0.20;99.90
28773;DHT22;15925;51.222;5.678;2023-03-01T01:15:38;0.20;99.90
28773;DHT22;15925;51.222;5.678;2023-03-01T01:18:04;0.20;99.90
28773;DHT22;15925;51.222;5.678;2023-03-01T01:20:29;0.10;99.90
28773;DHT22;15925;51.222;5.678;2023-03-01T01:22:55;0.10;99.90
28773;DHT22;15925;51.222;5.678;2023-03-01T01:25:21;0.10;99.90
28773;DHT22;15925;51.222;5.678;2023-03-01T01:27:47;0.00;99.90
28773;DHT22;15925;51.222;5.678;2023-03-01T01:30:13;0.00;99.90
28773;DHT22;15925;51.222;5.678;2023-03-01T01:32:39;0.00;99.90
28773;DHT22;15925;51.222;5.678;2023-03-01T01:35:05;-0.10;99.90
28773;DHT22;15925;51.222;5.678;2023-03-01T01:37:31;-0.10;99.90
28773;DHT22;15925;51.222;5.678;2023-03-01T01:39:58;0.00;99.90
28773;DHT22;15925;51.222;5.678;2023-03-01T01:42:24;0.00;99.90
28773;DHT22;15925;51.222;5.678;2023-03-01T01:45:30;-0.20;99.90
28773;DHT22;15925;51.222;5.678;2023-03-01T01:48:06;-0.20;99.90
28773;DHT22;15925;51.222;5.678;2023-03-01T01:50:40;-0.10;99.90
28773;DHT22;15925;51.222;5.678;2023-03-01T01:53:15;0.00;99.90
28773;DHT22;15925;51.222;5.678;2023-03-01T01:55:45;-0.10;99.90
28773;DHT22;15925;51.222;5.678;2023-03-01T01:58:14;-0.20;99.90
28773;DHT22;15925;51.222;5.678;2023-03-01T02:00:41;-0.30;99.90
28773;DHT22;15925;51.222;5.678;2023-03-01T02:03:10;-0.30;99.90
28773;DHT22;15925;51.222;5.678;2023-03-01T02:05:57;-0.30;99.90
28773;DHT22;15925;51.222;5.678;2023-03-01T02:08:26;-0.30;99.90
28773;DHT22;15925;51.222;5.678;2023-03-01T02:10:53;-0.20;99.90
28773;DHT22;15925;51.222;5.678;2023-03-01T02:13:21;-0.30;99.90
28773;DHT22;15925;51.222;5.678;2023-03-01T02:15:47;-0.20;99.90
28773;DHT22;15925;51.222;5.678;2023-03-01T02:18:16;-0.30;99.90
28773;DHT22;15925;51.222;5.678;2023-03-01T02:23:34;-0.30;99.90
28773;DHT22;15925;51.222;5.678;2023-03-01T02:28:33;-0.30;99.90
28773;DHT22;15925;51.222;5.678;2023-03-01T02:31:04;-0.30;99.90
28773;DHT22;15925;51.222;5.678;2023-03-01T02:33:49;-0.30;99.90
28773;DHT22;15925;51.222;5.678;2023-03-01T02:36:43;-0.50;99.90
28773;DHT22;15925;51.222;5.678;2023-03-01T02:39:14;-0.40;99.90
28773;DHT22;15925;51.222;5.678;2023-03-01T02:41:47;-0.40;99.90
28773;DHT22;15925;51.222;5.678;2023-03-01T02:44:13;-0.50;99.90
28773;DHT22;15925;51.222;5.678;2023-03-01T02:46:50;-0.50;99.90
28773;DHT22;15925;51.222;5.678;2023-03-01T02:49:23;-0.60;99.90
28773;DHT22;15925;51.222;5.678;2023-03-01T02:54:41;-0.60;99.90
28773;DHT22;15925;51.222;5.678;2023-03-01T02:57:09;-0.60;99.90
28773;DHT22;15925;51.222;5.678;2023-03-01T02:59:37;-0.60;99.90
28773;DHT22;15925;51.222;5.678;2023-03-01T03:02:07;-0.60;99.90
28773;DHT22;15925;51.222;5.678;2023-03-01T03:04:33;-0.60;99.90
28773;DHT22;15925;51.222;5.678;2023-03-01T03:06:59;-0.70;99.90
28773;DHT22;15925;51.222;5.678;2023-03-01T03:09:25;-0.60;99.90
28773;DHT22;15925;51.222;5.678;2023-03-01T03:11:51;-0.60;99.90
28773;DHT22;15925;51.222;5.678;2023-03-01T03:14:17;-0.60;99.90
28773;DHT22;15925;51.222;5.678;2023-03-01T03:16:48;-0.60;99.90
28773;DHT22;15925;51.222;5.678;2023-03-01T03:19:15;-0.60;99.90
28773;DHT22;15925;51.222;5.678;2023-03-01T03:21:42;-0.60;99.90
28773;DHT22;15925;51.222;5.678;2023-03-01T03:24:08;-0.70;99.90
28773;DHT22;15925;51.222;5.678;2023-03-01T03:26:34;-0.70;99.90
28773;DHT22;15925;51.222;5.678;2023-03-01T03:29:00;-0.70;99.90
28773;DHT22;15925;51.222;5.678;2023-03-01T03:31:27;-0.60;99.90
28773;DHT22;15925;51.222;5.678;2023-03-01T03:33:53;-0.60;99.90
28773;DHT22;15925;51.222;5.678;2023-03-01T03:36:22;-0.60;99.90
28773;DHT22;15925;51.222;5.678;2023-03-01T03:38:48;-0.70;99.90
28773;DHT22;15925;51.222;5.678;2023-03-01T03:41:14;-0.70;99.90
28773;DHT22;15925;51.222;5.678;2023-03-01T03:43:41;-0.60;99.90
28773;DHT22;15925;51.222;5.678;2023-03-01T03:46:09;-0.70;99.90
28773;DHT22;15925;51.222;5.678;2023-03-01T03:48:41;-0.80;99.90
28773;DHT22;15925;51.222;5.678;2023-03-01T03:51:13;-0.70;99.90
28773;DHT22;15925;51.222;5.678;2023-03-01T03:53:40;-0.60;99.90
28773;DHT22;15925;51.222;5.678;2023-03-01T03:56:06;-0.60;99.90
28773;DHT22;15925;51.222;5.678;2023-03-01T03:58:32;-0.70;99.90
28773;DHT22;15925;51.222;5.678;2023-03-01T04:00:58;-0.80;99.90
28773;DHT22;15925;51.222;5.678;2023-03-01T04:03:27;-0.80;99.90
28773;DHT22;15925;51.222;5.678;2023-03-01T04:05:56;-0.80;99.90
28773;DHT22;15925;51.222;5.678;2023-03-01T04:08:23;-0.90;99.90
28773;DHT22;15925;51.222;5.678;2023-03-01T04:10:56;-0.80;99.90
28773;DHT22;15925;51.222;5.678;2023-03-01T04:13:22;-0.90;99.90
28773;DHT22;15925;51.222;5.678;2023-03-01T04:15:50;-0.90;99.90
28773;DHT22;15925;51.222;5.678;2023-03-01T04:18:17;-0.90;99.90
28773;DHT22;15925;51.222;5.678;2023-03-01T04:20:43;-0.80;99.90
28773;DHT22;15925;51.222;5.678;2023-03-01T04:23:19;-0.70;99.90
28773;DHT22;15925;51.222;5.678;2023-03-01T04:25:51;-0.70;99.90
28773;DHT22;15925;51.222;5.678;2023-03-01T04:28:32;-0.70;99.90
28773;DHT22;15925;51.222;5.678;2023-03-01T04:31:07;-0.70;99.90
28773;DHT22;15925;51.222;5.678;2023-03-01T04:33:43;-0.60;99.90
28773;DHT22;15925;51.222;5.678;2023-03-01T04:36:10;-0.60;99.90
28773;DHT22;15925;51.222;5.678;2023-03-01T04:38:37;-0.70;99.90
28773;DHT22;15925;51.222;5.678;2023-03-01T04:41:09;-0.80;99.90
28773;DHT22;15925;51.222;5.678;2023-03-01T04:43:36;-0.70;99.90
28773;DHT22;15925;51.222;5.678;2023-03-01T04:46:15;-0.80;99.90
28773;DHT22;15925;51.222;5.678;2023-03-01T04:48:42;-0.90;99.90
28773;DHT22;15925;51.222;5.678;2023-03-01T04:51:08;-1.00;99.90
28773;DHT22;15925;51.222;5.678;2023-03-01T04:53:35;-0.90;99.90
28773;DHT22;15925;51.222;5.678;2023-03-01T04:56:02;-0.90;99.90
28773;DHT22;15925;51.222;5.678;2023-03-01T04:58:29;-0.90;99.90
28773;DHT22;15925;51.222;5.678;2023-03-01T05:00:55;-1.10;99.90
28773;DHT22;15925;51.222;5.678;2023-03-01T05:03:21;-1.10;99.90
28773;DHT22;15925;51.222;5.678;2023-03-01T05:05:48;-1.10;99.90
28773;DHT22;15925;51.222;5.678;2023-03-01T05:08:15;-1.10;99.90
28773;DHT22;15925;51.222;5.678;2023-03-01T05:10:50;-1.10;99.90
28773;DHT22;15925;51.222;5.678;2023-03-01T05:13:19;-1.20;99.90
28773;DHT22;15925;51.222;5.678;2023-03-01T05:15:54;-1.20;99.90
28773;DHT22;15925;51.222;5.678;2023-03-01T05:18:20;-1.30;99.90
28773;DHT22;15925;51.222;5.678;2023-03-01T05:20:46;-1.30;99.90
28773;DHT22;15925;51.222;5.678;2023-03-01T05:23:12;-1.30;99.90
28773;DHT22;15925;51.222;5.678;2023-03-01T05:25:38;-1.30;99.90
28773;DHT22;15925;51.222;5.678;2023-03-01T05:28:07;-1.30;99.90
28773;DHT22;15925;51.222;5.678;2023-03-01T05:30:35;-1.30;99.90
28773;DHT22;15925;51.222;5.678;2023-03-01T05:33:01;-1.30;99.90
28773;DHT22;15925;51.222;5.678;2023-03-01T05:35:27;-1.30;99.90
28773;DHT22;15925;51.222;5.678;2023-03-01T05:37:54;-1.30;99.90
28773;DHT22;15925;51.222;5.678;2023-03-01T05:40:22;-1.30;99.90
28773;DHT22;15925;51.222;5.678;2023-03-01T05:42:50;-1.30;99.90
28773;DHT22;15925;51.222;5.678;2023-03-01T05:45:16;-1.30;99.90
28773;DHT22;15925;51.222;5.678;2023-03-01T05:47:44;-1.30;99.90
28773;DHT22;15925;51.222;5.678;2023-03-01T05:50:16;-1.30;99.90
28773;DHT22;15925;51.222;5.678;2023-03-01T05:52:52;-1.30;99.90
28773;DHT22;15925;51.222;5.678;2023-03-01T05:55:21;-1.40;99.90
28773;DHT22;15925;51.222;5.678;2023-03-01T05:57:48;-1.50;99.90
28773;DHT22;15925;51.222;5.678;2023-03-01T06:00:17;-1.50;99.90
28773;DHT22;15925;51.222;5.678;2023-03-01T06:02:44;-1.40;99.90
28773;DHT22;15925;51.222;5.678;2023-03-01T06:05:11;-1.40;99.90
28773;DHT22;15925;51.222;5.678;2023-03-01T06:07:38;-1.40;99.90
28773;DHT22;15925;51.222;5.678;2023-03-01T06:10:05;-1.40;99.90
28773;DHT22;15925;51.222;5.678;2023-03-01T06:12:33;-1.30;99.90
28773;DHT22;15925;51.222;5.678;2023-03-01T06:15:00;-1.30;99.90
28773;DHT22;15925;51.222;5.678;2023-03-01T06:17:28;-1.40;99.90
28773;DHT22;15925;51.222;5.678;2023-03-01T06:19:54;-1.40;99.90
28773;DHT22;15925;51.222;5.678;2023-03-01T06:22:22;-1.30;99.90
28773;DHT22;15925;51.222;5.678;2023-03-01T06:24:48;-1.40;99.90
28773;DHT22;15925;51.222;5.678;2023-03-01T06:27:14;-1.50;99.90
28773;DHT22;15925;51.222;5.678;2023-03-01T06:29:40;-1.50;99.90
28773;DHT22;15925;51.222;5.678;2023-03-01T06:32:06;-1.60;99.90
28773;DHT22;15925;51.222;5.678;2023-03-01T06:34:33;-1.60;99.90
28773;DHT22;15925;51.222;5.678;2023-03-01T06:36:59;-1.60;99.90
28773;DHT22;15925;51.222;5.678;2023-03-01T06:39:27;-1.60;99.90
28773;DHT22;15925;51.222;5.678;2023-03-01T06:41:53;-1.50;99.90
28773;DHT22;15925;51.222;5.678;2023-03-01T06:44:19;-1.30;99.90
28773;DHT22;15925;51.222;5.678;2023-03-01T06:46:46;-1.40;99.90
28773;DHT22;15925;51.222;5.678;2023-03-01T06:49:12;-1.40;99.90
28773;DHT22;15925;51.222;5.678;2023-03-01T06:51:39;-1.40;99.90
28773;DHT22;15925;51.222;5.678;2023-03-01T06:54:05;-1.50;99.90
28773;DHT22;15925;51.222;5.678;2023-03-01T06:56:31;-1.40;99.90
28773;DHT22;15925;51.222;5.678;2023-03-01T06:58:57;-1.30;99.90
28773;DHT22;15925;51.222;5.678;2023-03-01T07:01:23;-1.30;99.90
28773;DHT22;15925;51.222;5.678;2023-03-01T07:03:49;-1.20;99.90
28773;DHT22;15925;51.222;5.678;2023-03-01T07:06:15;-1.10;99.90
28773;DHT22;15925;51.222;5.678;2023-03-01T07:08:41;-1.20;99.90
28773;DHT22;15925;51.222;5.678;2023-03-01T07:11:07;-1.10;99.90
28773;DHT22;15925;51.222;5.678;2023-03-01T07:13:33;-1.10;99.90
28773;DHT22;15925;51.222;5.678;2023-03-01T07:15:59;-1.00;99.90
28773;DHT22;15925;51.222;5.678;2023-03-01T07:18:25;-0.90;99.90
28773;DHT22;15925;51.222;5.678;2023-03-01T07:20:50;-0.90;99.90
28773;DHT22;15925;51.222;5.678;2023-03-01T07:23:16;-0.90;99.90
28773;DHT22;15925;51.222;5.678;2023-03-01T07:25:42;-0.90;99.90
28773;DHT22;15925;51.222;5.678;2023-03-01T07:28:08;-0.90;99.90
28773;DHT22;15925;51.222;5.678;2023-03-01T07:30:34;-0.80;99.90
28773;DHT22;15925;51.222;5.678;2023-03-01T07:32:59;-0.80;99.90
28773;DHT22;15925;51.222;5.678;2023-03-01T07:35:27;-0.70;99.90
28773;DHT22;15925;51.222;5.678;2023-03-01T07:37:53;-0.70;99.90
28773;DHT22;15925;51.222;5.678;2023-03-01T07:40:19;-0.70;99.90
28773;DHT22;15925;51.222;5.678;2023-03-01T07:42:45;-0.70;99.90
28773;DHT22;15925;51.222;5.678;2023-03-01T07:45:11;-0.70;99.90
28773;DHT22;15925;51.222;5.678;2023-03-01T07:47:39;-0.70;99.90
28773;DHT22;15925;51.222;5.678;2023-03-01T07:50:05;-0.60;99.90
28773;DHT22;15925;51.222;5.678;2023-03-01T07:52:30;-0.50;99.90
28773;DHT22;15925;51.222;5.678;2023-03-01T07:54:58;-0.50;99.90
28773;DHT22;15925;51.222;5.678;2023-03-01T07:57:25;-0.40;99.90
28773;DHT22;15925;51.222;5.678;2023-03-01T07:59:51;-0.40;99.90
28773;DHT22;15925;51.222;5.678;2023-03-01T08:02:17;-0.30;99.90
28773;DHT22;15925;51.222;5.678;2023-03-01T08:04:46;-0.30;99.90
28773;DHT22;15925;51.222;5.678;2023-03-01T08:07:11;-0.10;99.90
28773;DHT22;15925;51.222;5.678;2023-03-01T08:09:37;-0.10;99.90
28773;DHT22;15925;51.222;5.678;2023-03-01T08:12:04;-0.10;99.90
28773;DHT22;15925;51.222;5.678;2023-03-01T08:14:31;0.00;99.90
28773;DHT22;15925;51.222;5.678;2023-03-01T08:16:57;0.10;99.90
28773;DHT22;15925;51.222;5.678;2023-03-01T08:19:23;0.10;99.90
28773;DHT22;15925;51.222;5.678;2023-03-01T08:21:49;0.20;99.90
28773;DHT22;15925;51.222;5.678;2023-03-01T08:24:15;0.20;99.90
28773;DHT22;15925;51.222;5.678;2023-03-01T08:26:41;0.30;99.90
28773;DHT22;15925;51.222;5.678;2023-03-01T08:29:06;0.40;99.90
28773;DHT22;15925;51.222;5.678;2023-03-01T08:31:35;0.40;99.90
28773;DHT22;15925;51.222;5.678;2023-03-01T08:34:04;0.50;99.90
28773;DHT22;15925;51.222;5.678;2023-03-01T08:36:33;0.60;99.90
28773;DHT22;15925;51.222;5.678;2023-03-01T08:39:00;0.60;99.90
28773;DHT22;15925;51.222;5.678;2023-03-01T08:41:26;0.70;99.90
28773;DHT22;15925;51.222;5.678;2023-03-01T08:43:53;0.70;99.90
28773;DHT22;15925;51.222;5.678;2023-03-01T08:46:31;0.80;99.90
28773;DHT22;15925;51.222;5.678;2023-03-01T08:48:58;0.90;99.90
28773;DHT22;15925;51.222;5.678;2023-03-01T08:51:24;1.00;99.90
28773;DHT22;15925;51.222;5.678;2023-03-01T08:53:50;1.00;99.90
28773;DHT22;15925;51.222;5.678;2023-03-01T08:56:17;1.10;99.90
28773;DHT22;15925;51.222;5.678;2023-03-01T08:58:45;1.10;99.90
28773;DHT22;15925;51.222;5.678;2023-03-01T09:01:13;1.20;99.90
28773;DHT22;15925;51.222;5.678;2023-03-01T09:03:42;1.30;99.90
28773;DHT22;15925;51.222;5.678;2023-03-01T09:06:08;1.40;99.90
28773;DHT22;15925;51.222;5.678;2023-03-01T09:08:38;1.40;99.90
28773;DHT22;15925;51.222;5.678;2023-03-01T09:11:10;1.50;99.90
28773;DHT22;15925;51.222;5.678;2023-03-01T09:13:36;1.60;99.90
28773;DHT22;15925;51.222;5.678;2023-03-01T09:16:03;1.70;99.90
28773;DHT22;15925;51.222;5.678;2023-03-01T09:18:29;1.80;99.90
28773;DHT22;15925;51.222;5.678;2023-03-01T09:21:07;1.90;99.90
28773;DHT22;15925;51.222;5.678;2023-03-01T09:23:35;1.90;99.90
28773;DHT22;15925;51.222;5.678;2023-03-01T09:26:03;2.00;99.90
28773;DHT22;15925;51.222;5.678;2023-03-01T09:28:29;2.10;99.90
28773;DHT22;15925;51.222;5.678;2023-03-01T09:30:58;2.20;99.90
28773;DHT22;15925;51.222;5.678;2023-03-01T09:33:25;2.20;99.90
28773;DHT22;15925;51.222;5.678;2023-03-01T09:35:59;2.40;99.90
28773;DHT22;15925;51.222;5.678;2023-03-01T09:38:25;2.40;99.90
28773;DHT22;15925;51.222;5.678;2023-03-01T09:40:51;2.50;99.90
28773;DHT22;15925;51.222;5.678;2023-03-01T09:43:26;2.60;99.90
28773;DHT22;15925;51.222;5.678;2023-03-01T09:45:54;2.70;99.90
28773;DHT22;15925;51.222;5.678;2023-03-01T09:48:24;2.70;99.90
28773;DHT22;15925;51.222;5.678;2023-03-01T09:50:51;2.80;99.90
28773;DHT22;15925;51.222;5.678;2023-03-01T09:53:20;2.90;99.90
28773;DHT22;15925;51.222;5.678;2023-03-01T09:56:24;2.90;99.90
28773;DHT22;15925;51.222;5.678;2023-03-01T10:01:47;3.20;99.90
28773;DHT22;15925;51.222;5.678;2023-03-01T10:07:04;3.40;99.90
28773;DHT22;15925;51.222;5.678;2023-03-01T10:09:34;3.40;99.90
28773;DHT22;15925;51.222;5.678;2023-03-01T10:12:02;3.50;99.90
28773;DHT22;15925;51.222;5.678;2023-03-01T10:14:35;3.60;99.90
28773;DHT22;15925;51.222;5.678;2023-03-01T10:17:30;3.70;99.90
28773;DHT22;15925;51.222;5.678;2023-03-01T10:22:42;3.90;99.90
28773;DHT22;15925;51.222;5.678;2023-03-01T10:25:14;4.10;99.90
28773;DHT22;15925;51.222;5.678;2023-03-01T10:27:53;4.30;99.90
28773;DHT22;15925;51.222;5.678;2023-03-01T10:30:36;4.40;99.90
28773;DHT22;15925;51.222;5.678;2023-03-01T10:33:20;4.40;99.90
28773;DHT22;15925;51.222;5.678;2023-03-01T10:35:47;4.50;99.90
28773;DHT22;15925;51.222;5.678;2023-03-01T10:38:15;4.60;99.90
28773;DHT22;15925;51.222;5.678;2023-03-01T10:40:59;4.80;99.90
28773;DHT22;15925;51.222;5.678;2023-03-01T10:43:32;4.90;99.90
28773;DHT22;15925;51.222;5.678;2023-03-01T10:49:15;5.00;99.90
28773;DHT22;15925;51.222;5.678;2023-03-01T10:51:43;5.10;99.90
28773;DHT22;15925;51.222;5.678;2023-03-01T10:54:20;5.30;99.90
28773;DHT22;15925;51.222;5.678;2023-03-01T10:57:22;5.40;99.90
28773;DHT22;15925;51.222;5.678;2023-03-01T10:59:38;5.50;99.90
28773;DHT22;15925;51.222;5.678;2023-03-01T11:02:36;5.50;99.90
28773;DHT22;15925;51.222;5.678;2023-03-01T11:05:13;5.50;99.90
28773;DHT22;15925;51.222;5.678;2023-03-01T11:08:01;5.60;99.90
28773;DHT22;15925;51.222;5.678;2023-03-01T11:10:33;5.60;99.90
28773;DHT22;15925;51.222;5.678;2023-03-01T11:13:15;5.70;99.90
28773;DHT22;15925;51.222;5.678;2023-03-01T11:15:42;5.70;99.90
28773;DHT22;15925;51.222;5.678;2023-03-01T11:18:20;5.70;99.90
28773;DHT22;15925;51.222;5.678;2023-03-01T11:20:46;5.70;99.90
28773;DHT22;15925;51.222;5.678;2023-03-01T11:23:14;5.90;99.90
28773;DHT22;15925;51.222;5.678;2023-03-01T11:25:54;6.00;99.90
28773;DHT22;15925;51.222;5.678;2023-03-01T11:28:21;6.20;99.90
28773;DHT22;15925;51.222;5.678;2023-03-01T11:36:19;6.20;99.90
28773;DHT22;15925;51.222;5.678;2023-03-01T11:38:50;6.30;99.90
28773;DHT22;15925;51.222;5.678;2023-03-01T11:41:20;6.40;99.90
28773;DHT22;15925;51.222;5.678;2023-03-01T11:44:14;6.40;99.90
28773;DHT22;15925;51.222;5.678;2023-03-01T11:49:51;6.40;99.90
28773;DHT22;15925;51.222;5.678;2023-03-01T11:52:29;6.40;99.90
28773;DHT22;15925;51.222;5.678;2023-03-01T12:04:09;6.80;99.90
28773;DHT22;15925;51.222;5.678;2023-03-01T12:12:36;6.50;99.90
28773;DHT22;15925;51.222;5.678;2023-03-01T12:43:26;7.00;99.90
28773;DHT22;15925;51.222;5.678;2023-03-01T12:49:22;6.90;99.90
28773;DHT22;15925;51.222;5.678;2023-03-01T12:52:01;7.10;99.90
28773;DHT22;15925;51.222;5.678;2023-03-01T12:54:33;7.10;99.90
28773;DHT22;15925;51.222;5.678;2023-03-01T12:57:24;7.30;99.90
28773;DHT22;15925;51.222;5.678;2023-03-01T13:02:48;7.00;99.90
28773;DHT22;15925;51.222;5.678;2023-03-01T13:05:31;6.80;99.90
28773;DHT22;15925;51.222;5.678;2023-03-01T13:08:20;6.80;99.90
28773;DHT22;15925;51.222;5.678;2023-03-01T13:10:57;6.90;99.90
28773;DHT22;15925;51.222;5.678;2023-03-01T13:13:26;6.90;99.90
28773;DHT22;15925;51.222;5.678;2023-03-01T13:15:53;6.90;99.90
28773;DHT22;15925;51.222;5.678;2023-03-01T13:20:49;6.70;99.90
28773;DHT22;15925;51.222;5.678;2023-03-01T13:26:00;6.80;99.90
28773;DHT22;15925;51.222;5.678;2023-03-01T13:33:51;7.10;99.90
28773;DHT22;15925;51.222;5.678;2023-03-01T13:41:55;7.00;99.90
28773;DHT22;15925;51.222;5.678;2023-03-01T13:44:38;7.10;99.90
28773;DHT22;15925;51.222;5.678;2023-03-01T13:52:40;7.00;99.90
28773;DHT22;15925;51.222;5.678;2023-03-01T13:55:19;7.10;99.90
28773;DHT22;15925;51.222;5.678;2023-03-01T13:57:50;7.20;99.90
28773;DHT22;15925;51.222;5.678;2023-03-01T14:03:23;7.30;99.90
28773;DHT22;15925;51.222;5.678;2023-03-01T14:06:09;7.40;99.90
28773;DHT22;15925;51.222;5.678;2023-03-01T14:08:37;7.40;99.90
28773;DHT22;15925;51.222;5.678;2023-03-01T14:11:51;7.40;99.90
28773;DHT22;15925;51.222;5.678;2023-03-01T14:14:37;7.30;99.90
28773;DHT22;15925;51.222;5.678;2023-03-01T14:17:28;7.30;99.90
28773;DHT22;15925;51.222;5.678;2023-03-01T14:20:03;7.30;99.90
28773;DHT22;15925;51.222;5.678;2023-03-01T14:22:35;7.20;99.90
28773;DHT22;15925;51.222;5.678;2023-03-01T14:25:55;7.30;99.90
28773;DHT22;15925;51.222;5.678;2023-03-01T14:30:53;7.20;99.90
28773;DHT22;15925;51.222;5.678;2023-03-01T14:33:34;7.20;99.90
28773;DHT22;15925;51.222;5.678;2023-03-01T14:36:08;7.30;99.90
28773;DHT22;15925;51.222;5.678;2023-03-01T14:38:42;7.40;99.90
28773;DHT22;15925;51.222;5.678;2023-03-01T14:41:16;7.50;99.90
28773;DHT22;15925;51.222;5.678;2023-03-01T14:43:58;7.50;99.90
28773;DHT22;15925;51.222;5.678;2023-03-01T14:46:35;7.60;99.90
28773;DHT22;15925;51.222;5.678;2023-03-01T14:49:13;7.60;99.90
28773;DHT22;15925;51.222;5.678;2023-03-01T14:51:42;7.70;99.90
28773;DHT22;15925;51.222;5.678;2023-03-01T14:54:24;7.80;99.90
28773;DHT22;15925;51.222;5.678;2023-03-01T14:56:52;7.80;99.90
28773;DHT22;15925;51.222;5.678;2023-03-01T14:59:23;8.00;99.90
28773;DHT22;15925;51.222;5.678;2023-03-01T15:01:53;7.90;99.90
28773;DHT22;15925;51.222;5.678;2023-03-01T15:04:20;7.80;99.90
28773;DHT22;15925;51.222;5.678;2023-03-01T15:06:49;7.90;99.90
28773;DHT22;15925;51.222;5.678;2023-03-01T15:09:16;7.90;99.90
28773;DHT22;15925;51.222;5.678;2023-03-01T15:11:43;8.00;99.90
28773;DHT22;15925;51.222;5.678;2023-03-01T15:14:38;7.90;99.90
28773;DHT22;15925;51.222;5.678;2023-03-01T15:19:51;7.70;99.90
28773;DHT22;15925;51.222;5.678;2023-03-01T15:22:17;7.70;99.90
28773;DHT22;15925;51.222;5.678;2023-03-01T15:24:47;7.80;99.90
28773;DHT22;15925;51.222;5.678;2023-03-01T15:27:16;7.80;99.90
28773;DHT22;15925;51.222;5.678;2023-03-01T15:29:49;7.90;99.90
28773;DHT22;15925;51.222;5.678;2023-03-01T15:32:29;7.90;99.90
28773;DHT22;15925;51.222;5.678;2023-03-01T15:35:01;7.80;99.90
28773;DHT22;15925;51.222;5.678;2023-03-01T15:37:50;7.80;99.90
28773;DHT22;15925;51.222;5.678;2023-03-01T15:42:46;7.80;99.90
28773;DHT22;15925;51.222;5.678;2023-03-01T15:47:50;7.70;99.90
28773;DHT22;15925;51.222;5.678;2023-03-01T15:50:23;7.60;99.90
28773;DHT22;15925;51.222;5.678;2023-03-01T15:52:49;7.50;99.90
28773;DHT22;15925;51.222;5.678;2023-03-01T15:55:24;7.50;99.90
28773;DHT22;15925;51.222;5.678;2023-03-01T15:58:09;7.60;99.90
28773;DHT22;15925;51.222;5.678;2023-03-01T16:00:37;7.60;99.90
28773;DHT22;15925;51.222;5.678;2023-03-01T16:03:05;7.50;99.90
28773;DHT22;15925;51.222;5.678;2023-03-01T16:05:32;7.30;99.90
28773;DHT22;15925;51.222;5.678;2023-03-01T16:08:00;7.20;99.90
28773;DHT22;15925;51.222;5.678;2023-03-01T16:10:26;7.10;99.90
28773;DHT22;15925;51.222;5.678;2023-03-01T16:12:52;7.10;99.90
28773;DHT22;15925;51.222;5.678;2023-03-01T16:15:20;7.20;99.90
28773;DHT22;15925;51.222;5.678;2023-03-01T16:17:47;7.10;99.90
28773;DHT22;15925;51.222;5.678;2023-03-01T16:20:21;7.00;99.90
28773;DHT22;15925;51.222;5.678;2023-03-01T16:22:47;6.90;99.90
28773;DHT22;15925;51.222;5.678;2023-03-01T16:25:16;6.90;99.90
28773;DHT22;15925;51.222;5.678;2023-03-01T16:27:43;6.90;99.90
28773;DHT22;15925;51.222;5.678;2023-03-01T16:30:10;6.80;99.90
28773;DHT22;15925;51.222;5.678;2023-03-01T16:32:42;6.80;99.90
28773;DHT22;15925;51.222;5.678;2023-03-01T16:35:52;6.70;99.90
28773;DHT22;15925;51.222;5.678;2023-03-01T16:38:18;6.70;99.90
28773;DHT22;15925;51.222;5.678;2023-03-01T16:40:47;6.70;99.90
28773;DHT22;15925;51.222;5.678;2023-03-01T16:43:15;6.70;99.90
28773;DHT22;15925;51.222;5.678;2023-03-01T16:45:41;6.70;99.90
28773;DHT22;15925;51.222;5.678;2023-03-01T16:48:10;6.60;99.90
28773;DHT22;15925;51.222;5.678;2023-03-01T16:50:36;6.60;99.90
28773;DHT22;15925;51.222;5.678;2023-03-01T16:53:02;6.60;99.90
28773;DHT22;15925;51.222;5.678;2023-03-01T16:55:29;6.60;99.90
28773;DHT22;15925;51.222;5.678;2023-03-01T16:57:56;6.60;99.90
28773;DHT22;15925;51.222;5.678;2023-03-01T17:00:22;6.50;99.90
28773;DHT22;15925;51.222;5.678;2023-03-01T17:02:48;6.50;99.90
28773;DHT22;15925;51.222;5.678;2023-03-01T17:05:15;6.50;99.90
28773;DHT22;15925;51.222;5.678;2023-03-01T17:07:41;6.40;99.90
28773;DHT22;15925;51.222;5.678;2023-03-01T17:10:09;6.40;99.90
28773;DHT22;15925;51.222;5.678;2023-03-01T17:12:36;6.30;99.90
28773;DHT22;15925;51.222;5.678;2023-03-01T17:15:02;6.20;99.90
28773;DHT22;15925;51.222;5.678;2023-03-01T17:17:28;6.10;99.90
28773;DHT22;15925;51.222;5.678;2023-03-01T17:19:54;6.00;99.90
28773;DHT22;15925;51.222;5.678;2023-03-01T17:22:19;5.90;99.90
28773;DHT22;15925;51.222;5.678;2023-03-01T17:24:45;5.90;99.90
28773;DHT22;15925;51.222;5.678;2023-03-01T17:27:12;5.80;99.90
28773;DHT22;15925;51.222;5.678;2023-03-01T17:29:39;5.70;99.90
28773;DHT22;15925;51.222;5.678;2023-03-01T17:32:06;5.70;99.90
28773;DHT22;15925;51.222;5.678;2023-03-01T17:34:33;5.60;99.90
28773;DHT22;15925;51.222;5.678;2023-03-01T17:36:59;5.50;99.90
28773;DHT22;15925;51.222;5.678;2023-03-01T17:39:25;5.40;99.90
28773;DHT22;15925;51.222;5.678;2023-03-01T17:41:56;5.30;99.90
28773;DHT22;15925;51.222;5.678;2023-03-01T17:44:22;5.30;99.90
28773;DHT22;15925;51.222;5.678;2023-03-01T17:46:48;5.20;99.90
28773;DHT22;15925;51.222;5.678;2023-03-01T17:49:14;5.10;99.90
28773;DHT22;15925;51.222;5.678;2023-03-01T17:51:42;5.20;99.90